createdAt,value
2023-01-06T00:01:13.438Z,1.80
2023-01-06T00:03:41.868Z,1.75
2023-01-06T00:06:12.688Z,2.65
2023-01-06T00:08:41.520Z,2.22
2023-01-06T00:11:11.376Z,1.70
2023-01-06T00:13:40.213Z,1.98
2023-01-06T00:16:12.133Z,1.92
2023-01-06T00:18:40.771Z,1.58
2023-01-06T00:21:10.002Z,2.13
2023-01-06T00:23:38.845Z,1.80
2023-01-06T00:26:09.174Z,3.42
2023-01-06T00:28:37.505Z,2.60
2023-01-06T00:31:12.208Z,2.22
2023-01-06T00:33:40.789Z,2.00
2023-01-06T00:36:10.671Z,1.67
2023-01-06T00:38:40.105Z,1.70
2023-01-06T00:41:30.093Z,2.80
2023-01-06T00:43:59.193Z,1.90
2023-01-06T00:46:30.071Z,1.88
2023-01-06T00:49:04.931Z,2.22
2023-01-06T00:51:34.357Z,2.25
2023-01-06T00:54:02.818Z,1.95
2023-01-06T00:56:31.202Z,2.40
2023-01-06T00:58:59.550Z,1.52
2023-01-06T01:01:29.382Z,1.80
2023-01-06T01:03:57.980Z,1.80
2023-01-06T01:06:26.288Z,2.05
2023-01-06T01:08:55.875Z,2.28
2023-01-06T01:11:42.281Z,2.40
2023-01-06T01:14:11.612Z,2.80
2023-01-06T01:16:42.223Z,1.88
2023-01-06T01:19:10.948Z,2.30
2023-01-06T01:21:39.702Z,2.50
2023-01-06T01:24:09.244Z,2.95
2023-01-06T01:26:37.508Z,2.90
2023-01-06T01:29:06.131Z,2.28
2023-01-06T01:31:34.799Z,2.60
2023-01-06T01:34:04.598Z,2.72
2023-01-06T01:36:33.884Z,2.80
2023-01-06T01:39:02.212Z,3.25
2023-01-06T01:41:31.651Z,2.92
2023-01-06T01:44:01.562Z,3.33
2023-01-06T01:46:33.068Z,3.20
2023-01-06T01:49:12.953Z,3.08
2023-01-06T01:51:43.296Z,2.80
2023-01-06T01:54:15.109Z,3.42
2023-01-06T01:56:48.751Z,3.78
2023-01-06T01:59:19.685Z,3.50
2023-01-06T02:01:49.410Z,3.50
2023-01-06T02:04:20.375Z,3.30
2023-01-06T02:06:50.686Z,3.90
2023-01-06T02:09:21.652Z,4.22
2023-01-06T02:11:51.434Z,3.30
2023-01-06T02:14:23.683Z,3.65
2023-01-06T02:17:16.272Z,3.78
2023-01-06T02:20:23.888Z,4.10
2023-01-06T02:23:18.900Z,3.47
2023-01-06T02:26:21.739Z,3.90
2023-01-06T02:29:27.412Z,3.25
2023-01-06T02:32:09.549Z,3.88
2023-01-06T02:34:49.641Z,4.40
2023-01-06T02:37:30.188Z,3.50
2023-01-06T02:40:13.760Z,3.78
2023-01-06T02:42:48.015Z,2.90
2023-01-06T02:45:23.006Z,3.15
2023-01-06T02:48:01.669Z,2.92
2023-01-06T02:50:39.341Z,3.33
2023-01-06T02:53:12.995Z,3.30
2023-01-06T02:55:45.826Z,3.28
2023-01-06T02:58:21.556Z,4.00
2023-01-06T03:00:53.604Z,3.70
2023-01-06T03:03:26.222Z,3.67
2023-01-06T03:05:59.291Z,4.22
2023-01-06T03:08:30.253Z,4.90
2023-01-06T03:11:00.431Z,4.30
2023-01-06T03:13:34.604Z,4.00
2023-01-06T03:16:03.179Z,3.60
2023-01-06T03:18:33.866Z,4.57
2023-01-06T03:21:08.554Z,4.25
2023-01-06T03:23:37.132Z,3.63
2023-01-06T03:26:05.866Z,3.95
2023-01-06T03:28:34.152Z,3.95
2023-01-06T03:31:13.272Z,4.40
2023-01-06T03:33:55.339Z,3.10
2023-01-06T03:36:31.395Z,3.55
2023-01-06T03:39:09.209Z,2.70
2023-01-06T03:41:59.654Z,3.63
2023-01-06T03:44:36.427Z,3.65
2023-01-06T03:47:15.652Z,2.80
2023-01-06T03:49:53.273Z,3.33
2023-01-06T03:52:27.991Z,3.15
2023-01-06T03:55:01.003Z,2.95
2023-01-06T03:57:33.860Z,2.75
2023-01-06T04:00:07.482Z,3.45
2023-01-06T04:02:37.962Z,3.00
2023-01-06T04:05:11.175Z,2.80
2023-01-06T04:07:40.080Z,3.13
2023-01-06T04:10:09.928Z,2.90
2023-01-06T04:12:40.247Z,3.60
2023-01-06T04:15:10.978Z,2.70
2023-01-06T04:17:39.786Z,2.97
2023-01-06T04:20:11.900Z,2.50
2023-01-06T04:22:40.157Z,2.97
2023-01-06T04:25:09.543Z,3.72
2023-01-06T04:27:38.055Z,3.00
2023-01-06T04:30:07.453Z,3.60
2023-01-06T04:32:35.853Z,2.70
2023-01-06T04:35:04.170Z,3.08
2023-01-06T04:37:34.616Z,3.00
2023-01-06T04:40:03.796Z,3.53
2023-01-06T04:42:52.780Z,4.40
2023-01-06T04:45:21.235Z,3.63
2023-01-06T04:47:49.650Z,3.33
2023-01-06T04:50:18.079Z,4.03
2023-01-06T04:52:47.864Z,3.92
2023-01-06T04:55:16.252Z,3.65
2023-01-06T04:57:44.543Z,4.38
2023-01-06T05:00:13.957Z,3.35
2023-01-06T05:02:42.337Z,3.83
2023-01-06T05:05:10.882Z,3.60
2023-01-06T05:07:39.530Z,2.90
2023-01-06T05:10:11.303Z,3.47
2023-01-06T05:12:39.656Z,3.88
2023-01-06T05:15:09.139Z,11.85
2023-01-06T05:17:37.934Z,9.52
2023-01-06T05:20:07.517Z,5.25
2023-01-06T05:22:35.863Z,3.83
2023-01-06T05:25:04.329Z,4.68
2023-01-06T05:27:34.131Z,3.97
2023-01-06T05:30:02.401Z,3.55
2023-01-06T05:32:30.651Z,3.90
2023-01-06T05:34:58.933Z,3.33
2023-01-06T05:37:27.196Z,3.75
2023-01-06T05:39:55.485Z,4.28
2023-01-06T05:42:23.746Z,3.90
2023-01-06T05:44:53.498Z,4.93
2023-01-06T05:47:21.754Z,4.72
2023-01-06T05:49:50.049Z,5.43
2023-01-06T05:52:18.356Z,5.35
2023-01-06T05:54:46.915Z,6.82
2023-01-06T05:57:15.120Z,6.35
2023-01-06T05:59:43.406Z,5.63
2023-01-06T06:02:13.126Z,6.30
2023-01-06T06:04:41.392Z,6.40
2023-01-06T06:07:09.656Z,6.07
2023-01-06T06:09:37.894Z,6.40
2023-01-06T06:12:07.171Z,6.70
2023-01-06T06:14:35.729Z,5.50
2023-01-06T06:17:04.200Z,6.55
2023-01-06T06:19:34.004Z,6.53
2023-01-06T06:22:02.269Z,5.78
2023-01-06T06:24:30.587Z,5.40
2023-01-06T06:26:58.816Z,6.28
2023-01-06T06:29:27.056Z,5.75
2023-01-06T06:31:55.367Z,5.72
2023-01-06T06:34:23.645Z,6.40
2023-01-06T06:36:54.288Z,6.38
2023-01-06T06:39:22.801Z,6.60
2023-01-06T06:41:51.251Z,6.70
2023-01-06T06:44:19.636Z,6.75
2023-01-06T06:46:47.953Z,7.05
2023-01-06T06:49:16.238Z,7.82
2023-01-06T06:51:47.370Z,7.85
2023-01-06T06:54:17.342Z,6.05
2023-01-06T06:56:45.701Z,6.20
2023-01-06T06:59:14.022Z,6.00
2023-01-06T07:01:42.463Z,6.03
2023-01-06T07:04:10.958Z,5.50
2023-01-06T07:06:39.468Z,6.32
2023-01-06T07:09:07.747Z,6.25
2023-01-06T07:11:37.540Z,5.90
2023-01-06T07:14:05.917Z,5.43
2023-01-06T07:16:34.266Z,6.20
2023-01-06T07:19:02.764Z,5.45
2023-01-06T07:21:31.068Z,5.43
2023-01-06T07:23:59.293Z,5.85
2023-01-06T07:26:27.588Z,6.40
2023-01-06T07:28:57.220Z,7.28
2023-01-06T07:31:25.533Z,8.05
2023-01-06T07:33:54.387Z,6.40
2023-01-06T07:36:22.686Z,6.35
2023-01-06T07:38:51.106Z,6.55
2023-01-06T07:41:19.438Z,6.50
2023-01-06T07:43:47.749Z,6.45
2023-01-06T07:46:17.547Z,6.70
2023-01-06T07:48:45.858Z,6.70
2023-01-06T07:51:14.392Z,6.38
2023-01-06T07:53:42.943Z,6.07
2023-01-06T07:56:11.324Z,7.15
2023-01-06T07:58:39.710Z,6.03
2023-01-06T08:01:08.856Z,5.30
2023-01-06T08:03:38.672Z,5.05
2023-01-06T08:06:11.627Z,4.78
2023-01-06T08:08:41.505Z,4.80
2023-01-06T08:11:12.689Z,5.20
2023-01-06T08:13:41.453Z,4.90
2023-01-06T08:16:10.916Z,4.03
2023-01-06T08:18:41.003Z,3.22
2023-01-06T08:21:10.501Z,3.88
2023-01-06T08:23:38.942Z,3.53
2023-01-06T08:26:09.354Z,3.30
2023-01-06T08:28:37.708Z,3.45
2023-01-06T08:31:09.446Z,3.63
2023-01-06T08:33:38.253Z,3.55
2023-01-06T08:36:09.710Z,3.35
2023-01-06T08:38:38.435Z,3.83
2023-01-06T08:41:06.910Z,2.97
2023-01-06T08:43:35.626Z,2.88
2023-01-06T08:46:06.181Z,2.72
2023-01-06T08:48:35.572Z,2.75
2023-01-06T08:51:05.156Z,12.63
2023-01-06T08:53:35.636Z,3.33
2023-01-06T08:56:04.159Z,3.05
2023-01-06T08:58:32.773Z,3.28
2023-01-06T09:01:01.124Z,3.25
2023-01-06T09:03:35.328Z,2.78
2023-01-06T09:06:03.576Z,2.50
2023-01-06T09:08:31.863Z,3.63
2023-01-06T09:11:06.563Z,3.55
2023-01-06T09:13:36.031Z,3.15
2023-01-06T09:16:07.103Z,3.13
2023-01-06T09:18:35.735Z,3.60
2023-01-06T09:21:04.692Z,3.63
2023-01-06T09:23:33.912Z,3.60
2023-01-06T09:26:03.735Z,3.55
2023-01-06T09:28:33.544Z,3.80
2023-01-06T09:31:02.015Z,6.07
2023-01-06T09:33:30.485Z,4.60
2023-01-06T09:35:58.836Z,16.95
2023-01-06T09:38:28.238Z,6.95
2023-01-06T09:41:10.049Z,8.30
2023-01-06T09:43:48.213Z,9.35
2023-01-06T09:46:20.101Z,11.90
2023-01-06T09:48:57.974Z,7.45
2023-01-06T09:51:29.076Z,5.57
2023-01-06T09:54:03.066Z,5.43
2023-01-06T09:56:33.089Z,5.50
2023-01-06T09:59:09.415Z,4.93
2023-01-06T10:01:43.631Z,4.88
2023-01-06T10:04:18.206Z,7.05
2023-01-06T10:06:54.576Z,5.35
2023-01-06T10:09:30.043Z,4.40
2023-01-06T10:12:10.069Z,4.93
2023-01-06T10:14:51.001Z,8.93
2023-01-06T10:17:36.035Z,17.92
2023-01-06T10:20:18.396Z,5.35
2023-01-06T10:22:53.678Z,4.13
2023-01-06T10:25:23.997Z,4.30
2023-01-06T10:28:02.842Z,3.63
2023-01-06T10:30:40.261Z,3.90
2023-01-06T10:33:12.301Z,4.53
2023-01-06T10:35:40.629Z,3.80
2023-01-06T10:38:13.302Z,3.88
2023-01-06T10:40:42.055Z,4.80
2023-01-06T10:43:14.657Z,5.28
2023-01-06T10:45:44.670Z,4.85
2023-01-06T10:48:16.256Z,5.47
2023-01-06T10:50:44.757Z,5.80
2023-01-06T10:53:14.169Z,4.30
2023-01-06T10:55:48.229Z,7.97
2023-01-06T10:58:24.675Z,4.40
2023-01-06T11:01:01.378Z,4.63
2023-01-06T11:03:34.484Z,5.40
2023-01-06T11:06:10.093Z,4.85
2023-01-06T11:08:39.856Z,3.58
2023-01-06T11:11:26.886Z,4.50
2023-01-06T11:14:00.217Z,6.40
2023-01-06T11:16:31.639Z,4.30
2023-01-06T11:19:02.324Z,4.30
2023-01-06T11:21:42.326Z,4.43
2023-01-06T11:24:18.931Z,4.50
2023-01-06T11:26:52.295Z,5.60
2023-01-06T11:29:30.939Z,10.90
2023-01-06T11:32:02.283Z,4.40
2023-01-06T11:34:30.960Z,4.35
2023-01-06T11:36:59.997Z,5.47
2023-01-06T11:39:33.885Z,4.75
2023-01-06T11:42:10.502Z,5.07
2023-01-06T11:44:41.488Z,5.18
2023-01-06T11:47:15.775Z,5.90
2023-01-06T11:49:48.996Z,5.03
2023-01-06T11:52:25.789Z,4.95
2023-01-06T11:55:02.641Z,5.57
2023-01-06T11:57:41.181Z,5.78
2023-01-06T12:00:39.984Z,5.60
2023-01-06T12:03:15.899Z,6.22
2023-01-06T12:05:50.129Z,6.25
2023-01-06T12:08:22.836Z,6.25
2023-01-06T12:10:56.345Z,6.25
2023-01-06T12:13:24.969Z,6.70
2023-01-06T12:16:01.295Z,6.35
2023-01-06T12:18:34.355Z,7.05
2023-01-06T12:21:04.908Z,6.70
2023-01-06T12:23:36.288Z,6.80
2023-01-06T12:26:10.889Z,6.40
2023-01-06T12:28:41.332Z,5.80
2023-01-06T12:31:16.895Z,6.93
2023-01-06T12:33:51.026Z,6.90
2023-01-06T12:36:31.204Z,5.97
2023-01-06T12:39:04.143Z,4.97
2023-01-06T12:41:40.402Z,5.35
2023-01-06T12:44:17.643Z,5.55
2023-01-06T12:46:57.473Z,5.50
2023-01-06T12:49:41.422Z,4.90
2023-01-06T12:52:14.438Z,8.35
2023-01-06T12:54:51.052Z,5.55
2023-01-06T12:57:35.864Z,6.18
2023-01-06T13:00:19.754Z,5.97
2023-01-06T13:03:10.539Z,5.13
2023-01-06T13:05:50.968Z,5.45
2023-01-06T13:08:33.966Z,5.45
2023-01-06T13:11:14.074Z,5.82
2023-01-06T13:14:01.775Z,4.72
2023-01-06T13:16:40.526Z,5.13
2023-01-06T13:19:21.874Z,5.18
2023-01-06T13:21:53.894Z,5.43
2023-01-06T13:24:39.265Z,4.93
2023-01-06T13:27:24.363Z,5.38
2023-01-06T13:30:12.772Z,5.30
2023-01-06T13:32:50.873Z,6.93
2023-01-06T13:35:52.537Z,5.60
2023-01-06T13:38:51.383Z,6.40
2023-01-06T13:41:24.177Z,6.88
2023-01-06T13:43:55.971Z,5.88
2023-01-06T13:46:27.492Z,4.15
2023-01-06T13:48:59.862Z,4.03
2023-01-06T13:51:32.841Z,3.90
2023-01-06T13:54:03.013Z,3.72
2023-01-06T13:56:33.911Z,4.25
2023-01-06T13:59:23.220Z,4.20
2023-01-06T14:01:53.071Z,4.40
2023-01-06T14:04:47.501Z,3.90
2023-01-06T14:07:35.015Z,3.83
2023-01-06T14:10:03.999Z,1.95
2023-01-06T14:12:36.366Z,2.75
2023-01-06T14:15:07.216Z,2.10
2023-01-06T14:17:42.124Z,2.15
2023-01-06T14:20:27.753Z,1.30
2023-01-06T14:23:03.521Z,1.40
2023-01-06T14:25:35.638Z,1.30
2023-01-06T14:28:25.673Z,1.20
2023-01-06T14:31:30.647Z,0.90
2023-01-06T14:34:04.457Z,0.93
2023-01-06T14:36:34.709Z,0.70
2023-01-06T14:39:08.754Z,0.98
2023-01-06T14:41:44.234Z,0.80
2023-01-06T14:44:17.014Z,0.90
2023-01-06T14:46:50.645Z,1.15
2023-01-06T14:49:24.519Z,0.80
2023-01-06T14:51:55.516Z,0.80
2023-01-06T14:54:30.024Z,0.98
2023-01-06T14:57:00.698Z,1.00
2023-01-06T14:59:29.920Z,0.88
2023-01-06T15:02:01.225Z,0.80
2023-01-06T15:04:42.561Z,0.90
2023-01-06T15:07:19.125Z,1.05
2023-01-06T15:09:53.275Z,0.90
2023-01-06T15:12:26.582Z,0.90
2023-01-06T15:14:55.375Z,0.70
2023-01-06T15:17:24.289Z,0.80
2023-01-06T15:19:53.967Z,0.75
2023-01-06T15:22:25.068Z,0.90
2023-01-06T15:24:56.427Z,0.90
2023-01-06T15:27:30.543Z,1.00
2023-01-06T15:30:01.713Z,0.90
2023-01-06T15:32:30.247Z,0.90
2023-01-06T15:34:59.636Z,1.65
2023-01-06T15:37:34.978Z,1.20
2023-01-06T15:40:06.536Z,1.77
2023-01-06T15:42:36.270Z,4.13
2023-01-06T15:45:07.727Z,3.42
2023-01-06T15:47:40.946Z,2.85
2023-01-06T15:50:13.945Z,2.35
2023-01-06T15:52:47.838Z,2.17
2023-01-06T15:58:24.430Z,2.22
2023-01-06T16:01:01.269Z,2.50
2023-01-06T16:03:32.779Z,2.85
2023-01-06T16:06:11.730Z,2.33
2023-01-06T16:08:41.632Z,2.75
2023-01-06T16:11:41.572Z,3.20
2023-01-06T16:14:29.738Z,3.75
2023-01-06T16:17:12.427Z,4.10
2023-01-06T16:19:47.530Z,7.07
2023-01-06T16:22:30.586Z,7.75
2023-01-06T16:25:00.572Z,6.65
2023-01-06T16:27:30.851Z,7.65
2023-01-06T16:30:23.349Z,13.02
2023-01-06T16:32:55.841Z,9.07
2023-01-06T16:35:28.774Z,11.30
2023-01-06T16:37:57.358Z,13.43
2023-01-06T16:40:27.801Z,16.10
2023-01-06T16:43:00.797Z,5.50
2023-01-06T16:45:34.967Z,8.50
2023-01-06T16:48:03.366Z,3.13
2023-01-06T16:50:35.491Z,4.25
2023-01-06T16:53:18.213Z,4.97
2023-01-06T16:55:46.888Z,6.88
2023-01-06T16:58:19.620Z,5.20
2023-01-06T17:00:52.719Z,5.75
2023-01-06T17:03:25.457Z,5.13
2023-01-06T17:05:54.736Z,4.80
2023-01-06T17:08:26.715Z,4.65
2023-01-06T17:10:55.237Z,6.68
2023-01-06T17:13:37.829Z,5.78
2023-01-06T17:16:16.770Z,4.55
2023-01-06T17:18:53.686Z,4.75
2023-01-06T17:21:26.051Z,3.80
2023-01-06T17:23:58.363Z,2.00
2023-01-06T17:26:27.980Z,1.50
2023-01-06T17:28:58.676Z,1.50
2023-01-06T17:31:35.599Z,1.83
2023-01-06T17:34:13.395Z,2.22
2023-01-06T17:36:43.908Z,2.90
2023-01-06T17:39:17.132Z,5.85
2023-01-06T17:41:45.561Z,6.07
2023-01-06T17:44:19.534Z,8.38
2023-01-06T17:46:48.464Z,5.88
2023-01-06T17:49:36.460Z,8.00
2023-01-06T17:52:16.965Z,11.05
2023-01-06T17:55:10.341Z,5.18
2023-01-06T17:57:40.707Z,4.10
2023-01-06T18:00:23.555Z,6.82
2023-01-06T18:02:56.659Z,6.90
2023-01-06T18:06:03.069Z,5.55
2023-01-06T18:08:32.985Z,4.32
2023-01-06T18:11:23.087Z,6.32
2023-01-06T18:13:54.931Z,5.75
2023-01-06T18:16:32.680Z,10.00
2023-01-06T18:19:16.813Z,6.45
2023-01-06T18:21:46.121Z,7.53
2023-01-06T18:24:19.412Z,3.75
2023-01-06T18:26:55.891Z,4.55
2023-01-06T18:29:26.443Z,5.90
2023-01-06T18:31:56.669Z,5.90
2023-01-06T18:34:32.775Z,7.30
2023-01-06T18:37:02.471Z,5.07
2023-01-06T18:39:32.406Z,4.20
2023-01-06T18:42:19.282Z,29.85
2023-01-06T18:44:57.795Z,20.20
2023-01-06T18:47:30.669Z,5.30
2023-01-06T18:50:23.493Z,3.45
2023-01-06T18:52:53.013Z,4.82
2023-01-06T18:55:27.103Z,4.20
2023-01-06T18:58:02.335Z,8.55
2023-01-06T19:00:40.308Z,5.43
2023-01-06T19:03:42.122Z,3.15
2023-01-06T19:06:46.079Z,3.80
2023-01-06T19:09:24.977Z,3.55
2023-01-06T19:12:02.176Z,3.40
2023-01-06T19:14:34.212Z,2.88
2023-01-06T19:17:17.227Z,3.88
2023-01-06T19:19:51.811Z,5.03
2023-01-06T19:22:25.310Z,3.03
2023-01-06T19:25:00.601Z,3.40
2023-01-06T19:27:45.823Z,4.35
2023-01-06T19:30:38.649Z,3.85
2023-01-06T19:33:35.084Z,3.40
2023-01-06T19:36:40.221Z,2.20
2023-01-06T19:39:28.344Z,2.50
2023-01-06T19:42:00.215Z,3.40
2023-01-06T19:44:33.761Z,3.08
2023-01-06T19:47:18.093Z,2.60
2023-01-06T19:49:53.435Z,2.33
2023-01-06T19:52:43.410Z,2.25
2023-01-06T19:55:20.597Z,3.00
2023-01-06T19:57:53.078Z,1.75
2023-01-06T20:00:32.055Z,1.65
2023-01-06T20:03:06.203Z,2.00
2023-01-06T20:05:34.758Z,1.98
2023-01-06T20:08:11.035Z,1.70
2023-01-06T20:10:39.661Z,2.00
2023-01-06T20:13:07.959Z,1.70
2023-01-06T20:15:42.251Z,1.67
2023-01-06T20:18:13.812Z,1.63
2023-01-06T20:20:42.406Z,1.73
2023-01-06T20:23:13.097Z,1.40
2023-01-06T20:25:41.538Z,1.60
2023-01-06T20:28:19.406Z,1.98
2023-01-06T20:30:54.017Z,1.50
2023-01-06T20:33:22.458Z,1.90
2023-01-06T20:35:50.969Z,1.92
2023-01-06T20:38:20.833Z,1.85
2023-01-06T20:40:49.880Z,2.13
2023-01-06T20:43:20.486Z,2.00
2023-01-06T20:45:48.976Z,1.90
2023-01-06T20:48:20.248Z,1.90
2023-01-06T20:50:48.901Z,2.17
2023-01-06T20:53:17.461Z,1.42
2023-01-06T20:55:47.276Z,1.50
2023-01-06T20:58:15.937Z,1.83
2023-01-06T21:00:44.493Z,1.63
2023-01-06T21:03:12.976Z,1.75
2023-01-06T21:05:47.478Z,1.55
2023-01-06T21:08:15.874Z,1.50
2023-01-06T21:10:44.489Z,1.50
2023-01-06T21:13:14.222Z,1.40
2023-01-06T21:15:42.620Z,1.52
2023-01-06T21:18:11.040Z,1.73
2023-01-06T21:20:39.888Z,1.67
2023-01-06T21:23:10.086Z,1.65
2023-01-06T21:25:41.508Z,1.90
2023-01-06T21:28:10.546Z,1.80
2023-01-06T21:30:40.523Z,1.77
2023-01-06T21:33:09.085Z,2.30
2023-01-06T21:35:37.456Z,2.00
2023-01-06T21:38:06.136Z,1.90
2023-01-06T21:40:34.621Z,1.90
2023-01-06T21:43:11.423Z,1.75
2023-01-06T21:45:43.609Z,1.75
2023-01-06T21:48:13.880Z,1.67
2023-01-06T21:50:47.594Z,1.70
2023-01-06T21:53:19.184Z,2.20
2023-01-06T21:55:47.631Z,1.60
2023-01-06T21:58:16.070Z,1.90
2023-01-06T22:00:45.890Z,1.85
2023-01-06T22:03:14.457Z,1.20
2023-01-06T22:05:43.866Z,1.58
2023-01-06T22:08:12.574Z,1.40
2023-01-06T22:10:44.025Z,1.70
2023-01-06T22:13:20.941Z,1.45
2023-01-06T22:15:54.269Z,1.48
2023-01-06T22:18:23.064Z,1.65
2023-01-06T22:20:52.154Z,1.70
2023-01-06T22:23:22.876Z,1.85
2023-01-06T22:25:51.512Z,1.75
2023-01-06T22:28:20.043Z,2.10
2023-01-06T22:30:48.341Z,1.95
2023-01-06T22:33:18.292Z,2.15
2023-01-06T22:35:47.050Z,1.67
2023-01-06T22:38:15.630Z,1.90
2023-01-06T22:40:44.353Z,1.80
2023-01-06T22:43:12.735Z,2.25
2023-01-06T22:45:41.196Z,2.60
2023-01-06T22:48:09.650Z,2.70
2023-01-06T22:50:41.236Z,3.15
2023-01-06T22:53:09.763Z,3.20
2023-01-06T22:55:38.582Z,2.90
2023-01-06T22:58:06.990Z,3.35
2023-01-06T23:00:35.559Z,3.45
2023-01-06T23:03:03.994Z,3.10
2023-01-06T23:05:32.403Z,3.53
2023-01-06T23:08:02.319Z,3.13
2023-01-06T23:10:30.849Z,3.10
2023-01-06T23:12:59.357Z,2.90
2023-01-06T23:15:27.964Z,2.90
2023-01-06T23:17:56.323Z,4.00
2023-01-06T23:20:24.756Z,3.53
2023-01-06T23:22:53.286Z,3.17
2023-01-06T23:25:23.364Z,3.40
2023-01-06T23:27:51.903Z,3.03
2023-01-06T23:30:20.405Z,3.08
2023-01-06T23:32:48.691Z,3.65
2023-01-06T23:35:17.290Z,3.13
2023-01-06T23:37:45.853Z,2.90
2023-01-06T23:40:14.776Z,2.55
2023-01-06T23:42:48.760Z,2.17
2023-01-06T23:45:17.823Z,2.30
2023-01-06T23:47:46.527Z,2.30
2023-01-06T23:50:17.518Z,2.20
2023-01-06T23:52:49.307Z,2.78
2023-01-06T23:55:20.300Z,2.58
2023-01-06T23:57:50.268Z,2.78
